createdAt,value
2019-01-26T00:00:18.692Z,99817.68
2019-01-26T00:02:48.210Z,99818.22
2019-01-26T00:05:17.796Z,99812.02
2019-01-26T00:07:47.412Z,99800.23
2019-01-26T00:10:16.939Z,99771.31
2019-01-26T00:12:46.455Z,99773.27
2019-01-26T00:15:16.251Z,99774.23
2019-01-26T00:17:45.758Z,99781.89
2019-01-26T00:20:15.476Z,99793.06
2019-01-26T00:22:45.362Z,99782.73
2019-01-26T00:25:15.009Z,99787.23
2019-01-26T00:27:44.512Z,99782.89
2019-01-26T00:30:14.640Z,99764.61
2019-01-26T00:32:44.183Z,99768.61
2019-01-26T00:35:13.919Z,99775.90
2019-01-26T00:37:43.480Z,99779.06
2019-01-26T00:40:13.291Z,99775.67
2019-01-26T00:42:42.813Z,99774.72
2019-01-26T00:45:12.776Z,99779.55
2019-01-26T00:47:42.278Z,99768.08
2019-01-26T00:50:12.197Z,99772.75
2019-01-26T00:52:41.760Z,99768.59
2019-01-26T00:55:11.755Z,99761.42
2019-01-26T00:57:41.277Z,99748.39
2019-01-26T01:00:13.823Z,99743.40
2019-01-26T01:02:43.519Z,99736.48
2019-01-26T01:05:13.596Z,99727.91
2019-01-26T01:07:43.262Z,99716.20
2019-01-26T01:10:13.800Z,99721.16
2019-01-26T01:12:43.581Z,99722.08
2019-01-26T01:15:13.849Z,99716.38
2019-01-26T01:17:43.527Z,99715.29
2019-01-26T01:20:14.492Z,99716.91
2019-01-26T01:22:44.094Z,99701.05
2019-01-26T01:25:13.918Z,99709.50
2019-01-26T01:27:43.588Z,99704.50
2019-01-26T01:30:15.691Z,99700.00
2019-01-26T01:32:45.202Z,99693.42
2019-01-26T01:35:14.810Z,99694.34
2019-01-26T01:37:44.363Z,99692.50
2019-01-26T01:40:14.434Z,99673.05
2019-01-26T01:42:43.954Z,99695.63
2019-01-26T01:45:16.247Z,99689.17
2019-01-26T01:47:45.908Z,99689.98
2019-01-26T01:50:16.451Z,99684.16
2019-01-26T01:52:46.213Z,99676.03
2019-01-26T01:55:15.796Z,99686.52
2019-01-26T01:57:45.298Z,99685.23
2019-01-26T02:00:20.160Z,99688.44
2019-01-26T02:02:49.797Z,99693.39
2019-01-26T02:05:19.312Z,99697.71
2019-01-26T02:07:48.875Z,99709.34
2019-01-26T02:10:20.194Z,99697.89
2019-01-26T02:12:49.912Z,99697.53
2019-01-26T02:15:19.606Z,99703.22
2019-01-26T02:17:49.142Z,99708.72
2019-01-26T02:20:23.519Z,99708.70
2019-01-26T02:22:53.040Z,99700.02
2019-01-26T02:25:22.661Z,99699.09
2019-01-26T02:27:52.210Z,99690.63
2019-01-26T02:30:23.740Z,99688.28
2019-01-26T02:32:54.651Z,99680.28
2019-01-26T02:35:24.462Z,99673.75
2019-01-26T02:37:53.975Z,99674.42
2019-01-26T02:40:23.594Z,99677.00
2019-01-26T02:42:54.374Z,99666.20
2019-01-26T02:45:23.889Z,99671.08
2019-01-26T02:47:53.437Z,99667.36
2019-01-26T02:50:24.204Z,99669.83
2019-01-26T02:52:53.888Z,99673.82
2019-01-26T02:55:23.405Z,99670.20
2019-01-26T02:57:53.855Z,99671.58
2019-01-26T03:00:24.713Z,99676.41
2019-01-26T03:02:54.221Z,99677.64
2019-01-26T03:05:23.728Z,99673.03
2019-01-26T03:07:53.273Z,99666.48
2019-01-26T03:10:24.292Z,99659.77
2019-01-26T03:12:53.817Z,99658.18
2019-01-26T03:15:24.541Z,99658.52
2019-01-26T03:17:54.042Z,99656.83
2019-01-26T03:20:23.587Z,99644.16
2019-01-26T03:22:53.167Z,99633.45
2019-01-26T03:25:22.690Z,99644.34
2019-01-26T03:27:52.207Z,99642.13
2019-01-26T03:30:24.246Z,99617.00
2019-01-26T03:32:53.867Z,99627.33
2019-01-26T03:35:23.376Z,99612.26
2019-01-26T03:37:53.047Z,99622.19
2019-01-26T03:40:23.262Z,99618.13
2019-01-26T03:42:52.771Z,99618.88
2019-01-26T03:45:22.365Z,99618.44
2019-01-26T03:47:51.883Z,99606.88
2019-01-26T03:50:21.409Z,99623.61
2019-01-26T03:52:50.934Z,99623.89
2019-01-26T03:55:21.306Z,99626.34
2019-01-26T03:57:51.418Z,99625.57
2019-01-26T04:00:23.403Z,99624.28
2019-01-26T04:02:53.031Z,99629.08
2019-01-26T04:05:22.635Z,99634.16
2019-01-26T04:07:52.343Z,99636.44
2019-01-26T04:10:21.999Z,99633.94
2019-01-26T04:12:51.458Z,99636.28
2019-01-26T04:15:21.130Z,99633.02
2019-01-26T04:17:50.633Z,99634.09
2019-01-26T04:20:21.385Z,99630.19
2019-01-26T04:22:51.080Z,99621.84
2019-01-26T04:25:20.584Z,99610.80
2019-01-26T04:27:50.297Z,99592.06
2019-01-26T04:30:21.733Z,99614.46
2019-01-26T04:32:51.242Z,99611.29
2019-01-26T04:35:20.745Z,99610.73
2019-01-26T04:37:50.293Z,99605.80
2019-01-26T04:40:20.483Z,99611.12
2019-01-26T04:42:50.010Z,99602.53
2019-01-26T04:45:24.320Z,99601.00
2019-01-26T04:47:53.859Z,99588.48
2019-01-26T04:50:23.357Z,99587.88
2019-01-26T04:52:52.922Z,99586.66
2019-01-26T04:55:22.536Z,99587.09
2019-01-26T04:57:54.356Z,99584.69
2019-01-26T05:00:28.726Z,99587.65
2019-01-26T05:02:58.279Z,99600.17
2019-01-26T05:05:27.779Z,99595.69
2019-01-26T05:07:57.300Z,99595.69
2019-01-26T05:10:26.810Z,99593.62
2019-01-26T05:12:56.322Z,99594.45
2019-01-26T05:15:25.911Z,99594.30
2019-01-26T05:17:55.416Z,99590.17
2019-01-26T05:20:26.317Z,99594.42
2019-01-26T05:22:55.891Z,99597.64
2019-01-26T05:25:25.404Z,99604.98
2019-01-26T05:27:54.957Z,99606.38
2019-01-26T05:30:29.801Z,99623.80
2019-01-26T05:32:59.327Z,99631.88
2019-01-26T05:35:28.865Z,99642.82
2019-01-26T05:37:58.426Z,99656.23
2019-01-26T05:40:27.933Z,99660.09
2019-01-26T05:42:57.478Z,99666.43
2019-01-26T05:45:27.134Z,99663.17
2019-01-26T05:47:56.667Z,99667.45
2019-01-26T05:50:27.317Z,99677.78
2019-01-26T05:52:56.887Z,99683.64
2019-01-26T05:55:26.576Z,99690.41
2019-01-26T05:57:56.060Z,99692.69
2019-01-26T06:00:30.117Z,99689.20
2019-01-26T06:02:59.680Z,99690.90
2019-01-26T06:05:29.205Z,99693.70
2019-01-26T06:07:59.157Z,99697.05
2019-01-26T06:10:28.709Z,99700.01
2019-01-26T06:12:59.540Z,99697.02
2019-01-26T06:15:30.076Z,99697.52
2019-01-26T06:17:59.595Z,99699.45
2019-01-26T06:20:29.218Z,99694.00
2019-01-26T06:22:58.749Z,99698.72
2019-01-26T06:25:28.266Z,99703.67
2019-01-26T06:27:57.810Z,99695.61
2019-01-26T06:30:27.821Z,99700.95
2019-01-26T06:32:57.324Z,99698.84
2019-01-26T06:35:26.888Z,99697.64
2019-01-26T06:37:56.404Z,99693.61
2019-01-26T06:40:25.961Z,99697.42
2019-01-26T06:42:55.478Z,99688.01
2019-01-26T06:45:25.006Z,99680.92
2019-01-26T06:47:54.548Z,99680.62
2019-01-26T06:50:29.269Z,99680.22
2019-01-26T06:52:58.846Z,99681.30
2019-01-26T06:55:28.352Z,99679.55
2019-01-26T06:57:57.892Z,99686.84
2019-01-26T07:00:31.852Z,99682.80
2019-01-26T07:03:01.393Z,99683.97
2019-01-26T07:05:49.007Z,99689.57
2019-01-26T07:08:20.348Z,99698.46
2019-01-26T07:10:49.899Z,99697.86
2019-01-26T07:13:19.680Z,99704.86
2019-01-26T07:15:49.435Z,99699.55
2019-01-26T07:18:19.116Z,99702.28
2019-01-26T07:20:48.735Z,99699.42
2019-01-26T07:23:18.269Z,99684.91
2019-01-26T07:25:47.812Z,99681.58
2019-01-26T07:28:17.311Z,99684.38
2019-01-26T07:30:46.821Z,99691.32
2019-01-26T07:33:16.364Z,99699.27
2019-01-26T07:35:45.866Z,99704.81
2019-01-26T07:38:15.414Z,99700.48
2019-01-26T07:40:44.968Z,99701.53
2019-01-26T07:43:14.458Z,99705.80
2019-01-26T07:45:43.965Z,99707.48
2019-01-26T07:48:16.891Z,99706.19
2019-01-26T07:50:44.727Z,99705.73
2019-01-26T07:53:14.227Z,99703.27
2019-01-26T07:55:43.801Z,99696.68
2019-01-26T07:58:13.310Z,99702.30
2019-01-26T08:00:42.822Z,99694.73
2019-01-26T08:03:12.390Z,99704.47
2019-01-26T08:05:41.919Z,99705.95
2019-01-26T08:08:11.428Z,99714.05
2019-01-26T08:10:41.005Z,99723.69
2019-01-26T08:13:10.636Z,99734.31
2019-01-26T08:15:40.221Z,99734.06
2019-01-26T08:18:10.869Z,99732.59
2019-01-26T08:20:40.405Z,99729.38
2019-01-26T08:23:10.049Z,99736.43
2019-01-26T08:25:39.580Z,99740.38
2019-01-26T08:28:09.150Z,99744.95
2019-01-26T08:30:38.919Z,99754.08
2019-01-26T08:33:08.443Z,99751.20
2019-01-26T08:35:37.958Z,99755.42
2019-01-26T08:38:07.537Z,99760.89
2019-01-26T08:40:37.046Z,99759.97
2019-01-26T08:43:06.601Z,99764.47
2019-01-26T08:45:36.166Z,99766.27
2019-01-26T08:48:06.451Z,99762.21
2019-01-26T08:50:36.148Z,99772.95
2019-01-26T08:53:06.217Z,99774.55
2019-01-26T08:55:35.784Z,99775.59
2019-01-26T08:58:05.602Z,99775.05
2019-01-26T09:00:35.130Z,99775.05
2019-01-26T09:03:21.022Z,99772.39
2019-01-26T09:06:12.467Z,99774.91
2019-01-26T09:08:42.092Z,99772.64
2019-01-26T09:11:11.639Z,99773.55
2019-01-26T09:13:41.428Z,99769.83
2019-01-26T09:16:12.621Z,99761.36
2019-01-26T09:18:42.173Z,99760.38
2019-01-26T09:21:11.789Z,99758.25
2019-01-26T09:23:42.638Z,99760.58
2019-01-26T09:26:12.151Z,99772.19
2019-01-26T09:28:41.708Z,99768.64
2019-01-26T09:31:12.523Z,99766.70
2019-01-26T09:33:42.064Z,99765.04
2019-01-26T09:36:11.568Z,99746.88
2019-01-26T09:38:41.386Z,99768.42
2019-01-26T09:41:11.017Z,99755.84
2019-01-26T09:43:40.595Z,99751.75
2019-01-26T09:46:10.099Z,99743.98
2019-01-26T09:48:46.092Z,99749.17
2019-01-26T09:51:10.922Z,99741.56
2019-01-26T09:53:40.486Z,99731.09
2019-01-26T09:56:10.215Z,99739.88
2019-01-26T09:58:39.744Z,99732.73
2019-01-26T10:01:09.294Z,99752.98
2019-01-26T10:03:38.869Z,99729.33
2019-01-26T10:06:08.604Z,99728.30
2019-01-26T10:08:38.133Z,99736.08
2019-01-26T10:11:09.129Z,99724.61
2019-01-26T10:13:38.629Z,99716.97
2019-01-26T10:16:08.126Z,99732.67
2019-01-26T10:18:37.673Z,99737.19
2019-01-26T10:21:07.663Z,99719.57
2019-01-26T10:23:37.342Z,99730.16
2019-01-26T10:26:06.888Z,99732.20
2019-01-26T10:28:36.394Z,99718.09
2019-01-26T10:31:05.893Z,99738.99
2019-01-26T10:33:35.442Z,99742.41
2019-01-26T10:36:24.032Z,99742.14
2019-01-26T10:39:07.668Z,99735.74
2019-01-26T10:41:56.124Z,99731.17
2019-01-26T10:44:33.051Z,99738.95
2019-01-26T10:47:02.770Z,99723.31
2019-01-26T10:49:32.415Z,99754.77
2019-01-26T10:52:01.911Z,99737.80
2019-01-26T10:54:31.579Z,99742.03
2019-01-26T10:57:01.176Z,99752.92
2019-01-26T10:59:35.629Z,99750.80
2019-01-26T11:02:06.883Z,99759.25
2019-01-26T11:04:36.456Z,99767.53
2019-01-26T11:07:06.247Z,99764.70
2019-01-26T11:09:35.795Z,99754.68
2019-01-26T11:12:05.802Z,99727.88
2019-01-26T11:14:35.458Z,99738.38
2019-01-26T11:17:05.198Z,99735.50
2019-01-26T11:19:34.753Z,99746.42
2019-01-26T11:22:04.350Z,99728.27
2019-01-26T11:24:34.124Z,99747.31
2019-01-26T11:27:03.853Z,99750.20
2019-01-26T11:29:33.475Z,99741.53
2019-01-26T11:32:02.970Z,99721.31
2019-01-26T11:34:32.488Z,99760.83
2019-01-26T11:37:02.045Z,99695.11
2019-01-26T11:39:31.683Z,99731.31
2019-01-26T11:42:01.225Z,99739.41
2019-01-26T11:44:30.727Z,99763.14
2019-01-26T11:47:02.905Z,99759.81
2019-01-26T11:49:33.661Z,99742.52
2019-01-26T11:52:11.700Z,99759.65
2019-01-26T11:55:10.849Z,99781.76
2019-01-26T11:57:40.666Z,99747.25
2019-01-26T12:00:35.560Z,99761.53
2019-01-26T12:03:18.231Z,99743.20
2019-01-26T12:06:09.482Z,99799.62
2019-01-26T12:08:39.063Z,99788.20
2019-01-26T12:11:08.566Z,99774.01
2019-01-26T12:13:38.142Z,99771.25
2019-01-26T12:16:07.662Z,99772.91
2019-01-26T12:18:37.184Z,99796.39
2019-01-26T12:21:08.482Z,99796.69
2019-01-26T12:23:38.154Z,99815.23
2019-01-26T12:26:07.704Z,99817.36
2019-01-26T12:28:37.262Z,99800.69
2019-01-26T12:31:06.900Z,99796.55
2019-01-26T12:33:36.392Z,99781.62
2019-01-26T12:36:05.952Z,99782.16
2019-01-26T12:38:35.498Z,99784.17
2019-01-26T12:41:06.052Z,99786.86
2019-01-26T12:43:35.742Z,99791.83
2019-01-26T12:46:05.360Z,99806.94
2019-01-26T12:48:34.981Z,99795.97
2019-01-26T12:51:04.597Z,99810.70
2019-01-26T12:53:34.765Z,99822.14
2019-01-26T12:56:05.350Z,99827.02
2019-01-26T12:58:35.022Z,99837.25
2019-01-26T13:01:05.532Z,99841.86
2019-01-26T13:03:35.384Z,99827.38
2019-01-26T13:06:05.499Z,99827.48
2019-01-26T13:08:35.449Z,99845.63
2019-01-26T13:11:29.442Z,99823.23
2019-01-26T13:13:59.417Z,99840.46
2019-01-26T13:16:29.258Z,99831.91
2019-01-26T13:18:58.958Z,99825.37
2019-01-26T13:21:28.613Z,99824.83
2019-01-26T13:23:58.424Z,99830.80
2019-01-26T13:26:28.145Z,99818.74
2019-01-26T13:28:57.989Z,99822.23
2019-01-26T13:31:27.884Z,99823.97
2019-01-26T13:33:57.812Z,99827.61
2019-01-26T13:36:27.807Z,99834.75
2019-01-26T13:38:57.778Z,99853.83
2019-01-26T13:41:27.509Z,99842.18
2019-01-26T13:43:57.276Z,99840.70
2019-01-26T13:46:27.124Z,99857.79
2019-01-26T13:48:56.945Z,99864.14
2019-01-26T13:51:26.697Z,99846.18
2019-01-26T13:53:56.364Z,99848.57
2019-01-26T13:56:26.299Z,99845.17
2019-01-26T13:58:57.443Z,99839.42
2019-01-26T14:01:27.367Z,99840.48
2019-01-26T14:03:57.058Z,99852.70
2019-01-26T14:06:26.921Z,99855.77
2019-01-26T14:08:56.690Z,99815.65
2019-01-26T14:11:26.401Z,99849.31
2019-01-26T14:13:56.254Z,99853.97
2019-01-26T14:16:26.026Z,99852.05
2019-01-26T14:18:55.886Z,99849.90
2019-01-26T14:21:28.361Z,99851.13
2019-01-26T14:23:58.637Z,99856.66
2019-01-26T14:26:28.377Z,99862.84
2019-01-26T14:28:58.312Z,99875.56
2019-01-26T14:31:27.989Z,99853.81
2019-01-26T14:33:57.594Z,99859.80
2019-01-26T14:36:27.536Z,99872.00
2019-01-26T14:38:57.342Z,99844.50
2019-01-26T14:41:27.467Z,99867.75
2019-01-26T14:43:57.199Z,99882.82
2019-01-26T14:46:27.072Z,99855.08
2019-01-26T14:48:57.214Z,99871.03
2019-01-26T14:51:27.027Z,99875.22
2019-01-26T14:53:56.999Z,99868.80
2019-01-26T14:56:26.804Z,99861.98
2019-01-26T14:58:56.564Z,99873.55
2019-01-26T15:01:26.375Z,99885.36
2019-01-26T15:03:56.542Z,99877.59
2019-01-26T15:06:26.287Z,99881.61
2019-01-26T15:08:56.143Z,99877.88
2019-01-26T15:11:25.880Z,99878.25
2019-01-26T15:13:55.558Z,99867.97
2019-01-26T15:16:25.255Z,99880.55
2019-01-26T15:18:56.300Z,99890.16
2019-01-26T15:21:27.153Z,99901.41
2019-01-26T15:23:57.001Z,99897.86
2019-01-26T15:26:26.877Z,99898.93
2019-01-26T15:28:56.649Z,99907.09
2019-01-26T15:31:26.630Z,99911.40
2019-01-26T15:33:57.689Z,99914.41
2019-01-26T15:36:27.502Z,99918.11
2019-01-26T15:38:57.159Z,99923.03
2019-01-26T15:41:26.875Z,99921.84
2019-01-26T15:43:56.631Z,99928.55
2019-01-26T15:46:26.502Z,99935.95
2019-01-26T15:48:56.321Z,99936.48
2019-01-26T15:51:26.165Z,99940.19
2019-01-26T15:53:55.843Z,99935.05
2019-01-26T15:56:25.958Z,99932.34
2019-01-26T15:58:55.952Z,99934.83
2019-01-26T16:01:25.823Z,99942.78
2019-01-26T16:03:55.682Z,99937.33
2019-01-26T16:06:25.651Z,99944.37
2019-01-26T16:08:56.591Z,99945.33
2019-01-26T16:11:26.404Z,99939.29
2019-01-26T16:13:56.312Z,99941.09
2019-01-26T16:16:26.152Z,99943.27
2019-01-26T16:18:55.836Z,99946.07
2019-01-26T16:21:25.548Z,99947.46
2019-01-26T16:23:55.506Z,99946.86
2019-01-26T16:26:25.172Z,99945.91
2019-01-26T16:28:55.117Z,99946.38
2019-01-26T16:31:25.041Z,99948.75
2019-01-26T16:33:54.839Z,99962.27
2019-01-26T16:36:24.637Z,99961.88
2019-01-26T16:38:54.590Z,99960.22
2019-01-26T16:41:24.281Z,99967.04
2019-01-26T16:43:54.082Z,99972.37
2019-01-26T16:46:23.936Z,99962.01
2019-01-26T16:48:53.893Z,99972.11
2019-01-26T16:51:23.527Z,99969.30
2019-01-26T16:53:53.244Z,99978.41
2019-01-26T16:56:23.085Z,99986.56
2019-01-26T16:58:53.698Z,99986.20
2019-01-26T17:01:23.444Z,99987.97
2019-01-26T17:03:53.327Z,99997.23
2019-01-26T17:06:24.366Z,99990.33
2019-01-26T17:08:54.199Z,100002.53
2019-01-26T17:11:23.977Z,99997.31
2019-01-26T17:13:53.970Z,99990.54
2019-01-26T17:16:24.030Z,99992.09
2019-01-26T17:18:55.292Z,99993.08
2019-01-26T17:21:26.530Z,99992.33
2019-01-26T17:23:58.085Z,99995.85
2019-01-26T17:26:27.981Z,99986.44
2019-01-26T17:28:58.952Z,99999.47
2019-01-26T17:31:28.735Z,100000.97
2019-01-26T17:33:58.672Z,100002.58
2019-01-26T17:36:28.613Z,99997.56
2019-01-26T17:38:58.391Z,100007.00
2019-01-26T17:41:33.774Z,100002.84
2019-01-26T17:44:15.712Z,100008.25
2019-01-26T17:46:57.851Z,100008.66
2019-01-26T17:49:53.917Z,100003.20
2019-01-26T17:52:27.966Z,100005.63
2019-01-26T17:54:57.899Z,100012.40
2019-01-26T17:57:27.808Z,100011.31
2019-01-26T17:59:58.693Z,100017.92
2019-01-26T18:02:28.561Z,100019.92
2019-01-26T18:04:58.479Z,100027.13
2019-01-26T18:07:28.465Z,100011.94
2019-01-26T18:09:58.232Z,100017.73
2019-01-26T18:12:28.078Z,100011.11
2019-01-26T18:14:57.890Z,100012.38
2019-01-26T18:17:27.882Z,100016.55
2019-01-26T18:19:57.684Z,100042.50
2019-01-26T18:22:27.651Z,100034.66
2019-01-26T18:24:57.637Z,100036.89
2019-01-26T18:27:27.449Z,100039.69
2019-01-26T18:29:57.185Z,100040.48
2019-01-26T18:32:26.952Z,100038.28
2019-01-26T18:34:57.009Z,100038.77
2019-01-26T18:37:26.787Z,100044.64
2019-01-26T18:39:56.504Z,100045.19
2019-01-26T18:42:26.250Z,100035.18
2019-01-26T18:44:56.022Z,100033.50
2019-01-26T18:47:26.046Z,100034.63
2019-01-26T18:49:56.031Z,100034.41
2019-01-26T18:52:25.891Z,100028.17
2019-01-26T18:54:55.887Z,100030.58
2019-01-26T18:57:25.874Z,100033.87
2019-01-26T18:59:55.740Z,100026.86
2019-01-26T19:02:25.801Z,100032.75
2019-01-26T19:05:02.917Z,100040.89
2019-01-26T19:07:32.766Z,100041.53
2019-01-26T19:10:02.545Z,100052.69
2019-01-26T19:12:32.284Z,100053.63
2019-01-26T19:15:02.313Z,100059.34
2019-01-26T19:17:32.071Z,100060.63
2019-01-26T19:20:02.100Z,100051.95
2019-01-26T19:22:32.227Z,100051.41
2019-01-26T19:25:01.883Z,100055.84
2019-01-26T19:27:31.696Z,100053.73
2019-01-26T19:30:01.456Z,100053.39
2019-01-26T19:32:31.204Z,100066.81
2019-01-26T19:35:00.907Z,100060.64
2019-01-26T19:37:31.911Z,100061.78
2019-01-26T19:40:01.781Z,100062.62
2019-01-26T19:42:31.783Z,100070.07
2019-01-26T19:45:02.773Z,100072.11
2019-01-26T19:47:32.536Z,100069.28
2019-01-26T19:50:02.277Z,100073.09
2019-01-26T19:52:32.122Z,100067.45
2019-01-26T19:55:03.243Z,100078.39
2019-01-26T19:57:33.150Z,100075.94
2019-01-26T20:00:03.067Z,100077.97
2019-01-26T20:02:32.818Z,100089.07
2019-01-26T20:05:02.708Z,100089.97
2019-01-26T20:07:32.701Z,100087.16
2019-01-26T20:10:02.770Z,100083.00
2019-01-26T20:12:32.585Z,100089.13
2019-01-26T20:15:02.354Z,100082.92
2019-01-26T20:17:32.173Z,100087.55
2019-01-26T20:20:02.351Z,100083.68
2019-01-26T20:22:32.310Z,100081.11
2019-01-26T20:25:02.318Z,100080.99
2019-01-26T20:27:33.176Z,100089.66
2019-01-26T20:30:03.287Z,100091.70
2019-01-26T20:32:33.094Z,100092.98
2019-01-26T20:35:02.750Z,100091.26
2019-01-26T20:37:32.565Z,100087.10
2019-01-26T20:40:02.622Z,100087.10
2019-01-26T20:42:33.510Z,100083.00
2019-01-26T20:45:03.202Z,100084.14
2019-01-26T20:47:33.126Z,100083.23
2019-01-26T20:50:03.064Z,100081.51
2019-01-26T20:52:32.856Z,100085.41
2019-01-26T20:55:02.850Z,100088.95
2019-01-26T20:57:32.702Z,100096.20
2019-01-26T21:00:02.526Z,100092.48
2019-01-26T21:02:32.825Z,100090.69
2019-01-26T21:05:02.667Z,100093.75
2019-01-26T21:07:32.442Z,100090.43
2019-01-26T21:10:02.107Z,100089.46
2019-01-26T21:12:31.866Z,100089.02
2019-01-26T21:15:04.927Z,100089.51
2019-01-26T21:17:33.179Z,100086.95
2019-01-26T21:20:02.945Z,100092.60
2019-01-26T21:22:33.785Z,100091.81
2019-01-26T21:25:04.270Z,100099.41
2019-01-26T21:27:34.247Z,100100.16
2019-01-26T21:30:04.554Z,100106.84
2019-01-26T21:32:34.332Z,100102.65
2019-01-26T21:35:04.784Z,100101.37
2019-01-26T21:37:34.621Z,100110.03
2019-01-26T21:40:05.604Z,100101.29
2019-01-26T21:42:35.596Z,100102.65
2019-01-26T21:45:05.678Z,100095.27
2019-01-26T21:47:35.644Z,100110.27
2019-01-26T21:50:07.380Z,100103.80
2019-01-26T21:52:41.017Z,100107.59
2019-01-26T21:55:09.211Z,100106.05
2019-01-26T21:57:39.188Z,100097.60
2019-01-26T22:00:15.360Z,100094.20
2019-01-26T22:02:45.156Z,100095.53
2019-01-26T22:05:15.164Z,100096.34
2019-01-26T22:07:45.124Z,100088.28
2019-01-26T22:10:16.352Z,100089.80
2019-01-26T22:12:46.037Z,100075.30
2019-01-26T22:15:18.053Z,100071.28
2019-01-26T22:17:47.865Z,100083.26
2019-01-26T22:20:22.496Z,100088.13
2019-01-26T22:22:52.358Z,100088.56
2019-01-26T22:25:22.306Z,100083.26
2019-01-26T22:27:53.138Z,100093.20
2019-01-26T22:30:24.653Z,100088.96
2019-01-26T22:32:54.483Z,100087.19
2019-01-26T22:35:24.998Z,100083.21
2019-01-26T22:37:54.852Z,100082.45
2019-01-26T22:40:26.850Z,100086.59
2019-01-26T22:42:56.655Z,100088.17
2019-01-26T22:45:26.968Z,100090.98
2019-01-26T22:47:56.762Z,100091.72
2019-01-26T22:50:26.818Z,100086.45
2019-01-26T22:52:56.640Z,100078.23
2019-01-26T22:55:27.017Z,100087.61
2019-01-26T22:57:57.023Z,100090.41
2019-01-26T23:00:50.514Z,100088.20
2019-01-26T23:03:21.524Z,100087.19
2019-01-26T23:06:40.329Z,100084.41
2019-01-26T23:09:24.071Z,100085.06
2019-01-26T23:12:41.544Z,100076.72
2019-01-26T23:15:51.059Z,100080.17
2019-01-26T23:18:56.764Z,100079.91
2019-01-26T23:22:24.992Z,100079.19
2019-01-26T23:25:29.891Z,100086.04
2019-01-26T23:28:40.403Z,100085.77
2019-01-26T23:31:22.542Z,100093.03
2019-01-26T23:33:53.715Z,100099.79
2019-01-26T23:36:23.804Z,100098.23
2019-01-26T23:38:53.888Z,100098.85
2019-01-26T23:41:23.578Z,100097.66
2019-01-26T23:43:53.536Z,100102.83
2019-01-26T23:46:23.209Z,100103.09
2019-01-26T23:48:53.018Z,100111.41
2019-01-26T23:51:22.894Z,100100.84
2019-01-26T23:53:52.741Z,100107.83
2019-01-26T23:56:22.471Z,100106.10
2019-01-26T23:58:52.360Z,100112.06
